createdAt,value
2019-06-15T00:01:51.111Z,99800.03
2019-06-15T00:05:59.401Z,99791.16
2019-06-15T00:10:09.099Z,99786.55
2019-06-15T00:14:17.586Z,99783.88
2019-06-15T00:18:25.558Z,99779.01
2019-06-15T00:22:34.018Z,99782.97
2019-06-15T00:26:41.856Z,99774.38
2019-06-15T00:30:50.488Z,99774.89
2019-06-15T00:34:58.810Z,99775.95
2019-06-15T00:39:09.357Z,99776.55
2019-06-15T00:43:17.586Z,99774.42
2019-06-15T00:47:25.506Z,99764.53
2019-06-15T00:51:33.867Z,99766.97
2019-06-15T00:55:41.920Z,99764.86
2019-06-15T00:59:49.554Z,99777.14
2019-06-15T01:03:57.755Z,99777.20
2019-06-15T01:08:05.891Z,99785.27
2019-06-15T01:12:13.619Z,99776.83
2019-06-15T01:16:22.309Z,99776.31
2019-06-15T01:20:30.132Z,99779.17
2019-06-15T01:24:38.069Z,99780.68
2019-06-15T01:28:46.043Z,99777.28
2019-06-15T01:32:53.666Z,99776.89
2019-06-15T01:37:02.105Z,99779.61
2019-06-15T01:41:10.316Z,99782.60
2019-06-15T01:45:25.035Z,99780.84
2019-06-15T01:49:33.178Z,99785.58
2019-06-15T01:53:40.624Z,99785.88
2019-06-15T01:57:48.349Z,99787.31
2019-06-15T02:01:56.619Z,99787.70
2019-06-15T02:06:04.484Z,99783.10
2019-06-15T02:10:14.281Z,99787.30
2019-06-15T02:14:22.246Z,99790.05
2019-06-15T02:18:29.825Z,99785.14
2019-06-15T02:22:38.264Z,99788.66
2019-06-15T02:26:46.433Z,99784.77
2019-06-15T02:30:54.296Z,99792.17
2019-06-15T02:35:02.370Z,99795.60
2019-06-15T02:39:10.177Z,99803.95
2019-06-15T02:43:18.415Z,99801.58
2019-06-15T02:47:26.641Z,99805.70
2019-06-15T02:51:34.997Z,99807.66
2019-06-15T02:55:50.667Z,99809.55
2019-06-15T02:59:53.073Z,99809.87
2019-06-15T03:04:00.667Z,99812.81
2019-06-15T03:08:09.153Z,99815.05
2019-06-15T03:12:17.292Z,99807.94
2019-06-15T03:16:25.068Z,99803.23
2019-06-15T03:20:33.338Z,99810.89
2019-06-15T03:24:42.083Z,99810.36
2019-06-15T03:28:50.356Z,99819.42
2019-06-15T03:32:58.603Z,99818.34
2019-06-15T03:37:06.510Z,99814.03
2019-06-15T03:41:14.852Z,99809.83
2019-06-15T03:45:22.617Z,99799.64
2019-06-15T03:49:30.441Z,99795.59
2019-06-15T03:53:38.749Z,99796.34
2019-06-15T03:57:46.562Z,99794.91
2019-06-15T04:01:54.926Z,99800.19
2019-06-15T04:06:03.707Z,99799.16
2019-06-15T04:10:11.439Z,99792.76
2019-06-15T04:14:19.705Z,99796.36
2019-06-15T04:18:27.547Z,99805.06
2019-06-15T04:22:36.635Z,99812.66
2019-06-15T04:26:44.921Z,99828.39
2019-06-15T04:30:52.957Z,99825.53
2019-06-15T04:35:00.880Z,99824.38
2019-06-15T04:39:10.518Z,99830.73
2019-06-15T04:43:18.237Z,99845.05
2019-06-15T04:47:26.448Z,99857.27
2019-06-15T04:51:34.376Z,99855.45
2019-06-15T04:55:42.773Z,99851.02
2019-06-15T04:59:50.783Z,99858.04
2019-06-15T05:03:59.542Z,99858.11
2019-06-15T05:08:08.257Z,99865.67
2019-06-15T05:12:16.984Z,99868.23
2019-06-15T05:16:24.720Z,99866.50
2019-06-15T05:20:34.546Z,99875.57
2019-06-15T05:24:42.781Z,99871.24
2019-06-15T05:28:52.041Z,99876.45
2019-06-15T05:33:00.032Z,99872.28
2019-06-15T05:37:07.735Z,99876.86
2019-06-15T05:41:16.168Z,99876.86
2019-06-15T05:45:24.577Z,99886.67
2019-06-15T05:49:32.472Z,99886.67
2019-06-15T05:53:40.404Z,99892.10
2019-06-15T05:57:48.933Z,99892.16
2019-06-15T06:01:56.784Z,99892.16
2019-06-15T06:06:05.574Z,99895.31
2019-06-15T06:10:13.689Z,99891.12
2019-06-15T06:14:22.191Z,99891.12
2019-06-15T06:18:30.368Z,99894.27
2019-06-15T06:22:38.402Z,99885.23
2019-06-15T06:26:46.618Z,99886.73
2019-06-15T06:30:54.889Z,99894.50
2019-06-15T06:35:02.723Z,99888.50
2019-06-15T06:39:11.537Z,99886.97
2019-06-15T06:43:19.342Z,99891.23
2019-06-15T06:47:27.690Z,99892.47
2019-06-15T06:51:36.084Z,99897.57
2019-06-15T06:55:44.139Z,99893.25
2019-06-15T06:59:53.771Z,99898.44
2019-06-15T07:04:02.142Z,99895.55
2019-06-15T07:08:09.890Z,99900.40
2019-06-15T07:12:18.203Z,99900.09
2019-06-15T07:16:25.972Z,99892.64
2019-06-15T07:20:34.226Z,99892.64
2019-06-15T07:24:42.696Z,99895.33
2019-06-15T07:28:50.181Z,99889.52
2019-06-15T07:32:58.361Z,99893.90
2019-06-15T07:37:06.401Z,99897.30
2019-06-15T07:41:14.441Z,99905.50
2019-06-15T07:45:22.854Z,99911.08
2019-06-15T07:49:31.064Z,99904.75
2019-06-15T07:53:40.365Z,99902.41
2019-06-15T07:57:48.109Z,99912.74
2019-06-15T08:01:56.052Z,99912.74
2019-06-15T08:06:03.512Z,99911.84
2019-06-15T08:10:12.449Z,99921.03
2019-06-15T08:14:20.781Z,99920.95
2019-06-15T08:18:28.516Z,99918.16
2019-06-15T08:22:37.070Z,99934.33
2019-06-15T08:26:44.785Z,99933.84
2019-06-15T08:30:54.297Z,99929.21
2019-06-15T08:35:02.347Z,99929.21
2019-06-15T08:39:10.107Z,99927.82
2019-06-15T08:43:18.448Z,99919.19
2019-06-15T08:47:26.196Z,99931.80
2019-06-15T08:51:34.669Z,99919.34
2019-06-15T08:55:42.707Z,99926.33
2019-06-15T08:59:50.647Z,99930.50
2019-06-15T09:03:58.435Z,99930.43
2019-06-15T09:08:06.542Z,99927.78
2019-06-15T09:12:14.664Z,99921.27
2019-06-15T09:16:25.655Z,99928.53
2019-06-15T09:20:32.059Z,99923.09
2019-06-15T09:24:39.997Z,99925.00
2019-06-15T09:28:49.154Z,99916.22
2019-06-15T09:32:57.050Z,99918.11
2019-06-15T09:37:05.827Z,99910.13
2019-06-15T09:41:14.106Z,99912.60
2019-06-15T09:45:21.785Z,99908.75
2019-06-15T09:49:30.129Z,99914.55
2019-06-15T09:53:38.153Z,99917.02
2019-06-15T09:57:45.951Z,99912.08
2019-06-15T10:01:54.107Z,99904.08
2019-06-15T10:06:01.868Z,99897.73
2019-06-15T10:10:11.636Z,99902.18
2019-06-15T10:14:21.359Z,99895.56
2019-06-15T10:18:28.858Z,99902.66
2019-06-15T10:22:36.798Z,99900.70
2019-06-15T10:26:44.766Z,99912.52
2019-06-15T10:30:52.960Z,99901.33
2019-06-15T10:35:01.221Z,99907.09
2019-06-15T10:39:09.620Z,99896.34
2019-06-15T10:43:17.821Z,99892.81
2019-06-15T10:47:25.637Z,99897.22
2019-06-15T10:51:34.087Z,99891.98
2019-06-15T10:55:43.586Z,99897.22
2019-06-15T10:59:57.184Z,99885.95
2019-06-15T11:04:01.300Z,99875.75
2019-06-15T11:08:09.772Z,99869.18
2019-06-15T11:12:17.800Z,99860.92
2019-06-15T11:16:26.692Z,99870.84
2019-06-15T11:20:34.879Z,99851.83
2019-06-15T11:24:42.896Z,99855.64
2019-06-15T11:28:50.709Z,99856.16
2019-06-15T11:32:59.420Z,99865.03
2019-06-15T11:37:07.760Z,99848.47
2019-06-15T11:41:16.623Z,99851.94
2019-06-15T11:45:24.584Z,99844.38
2019-06-15T11:49:32.187Z,99841.98
2019-06-15T11:53:39.968Z,99845.54
2019-06-15T11:57:48.463Z,99829.72
2019-06-15T12:01:56.025Z,99839.53
2019-06-15T12:06:04.113Z,99823.83
2019-06-15T12:10:12.032Z,99821.77
2019-06-15T12:14:19.715Z,99820.89
2019-06-15T12:18:27.813Z,99812.21
2019-06-15T12:22:35.696Z,99807.69
2019-06-15T12:26:44.082Z,99810.16
2019-06-15T12:30:52.475Z,99804.94
2019-06-15T12:35:00.261Z,99796.02
2019-06-15T12:39:08.382Z,99792.88
2019-06-15T12:43:18.042Z,99781.45
2019-06-15T12:47:26.286Z,99781.00
2019-06-15T12:51:34.515Z,99778.44
2019-06-15T12:55:42.111Z,99774.36
2019-06-15T12:59:50.131Z,99774.10
2019-06-15T13:03:58.624Z,99778.80
2019-06-15T13:08:06.836Z,99784.75
2019-06-15T13:12:15.189Z,99779.05
2019-06-15T13:16:38.325Z,99777.96
2019-06-15T13:20:33.084Z,99779.50
2019-06-15T13:24:41.297Z,99785.92
2019-06-15T13:28:51.231Z,99771.58
2019-06-15T13:32:59.316Z,99768.31
2019-06-15T13:37:08.018Z,99764.95
2019-06-15T13:41:15.861Z,99762.75
2019-06-15T13:45:24.297Z,99761.95
2019-06-15T13:49:32.126Z,99762.58
2019-06-15T13:53:39.843Z,99762.10
2019-06-15T13:57:48.268Z,99760.48
2019-06-15T14:01:56.392Z,99753.94
2019-06-15T14:06:04.682Z,99750.62
2019-06-15T14:10:13.335Z,99750.47
2019-06-15T14:14:22.096Z,99749.61
2019-06-15T14:18:30.349Z,99749.78
2019-06-15T14:22:38.287Z,99745.77
2019-06-15T14:26:48.275Z,99739.20
2019-06-15T14:30:56.357Z,99738.20
2019-06-15T14:35:04.193Z,99733.16
2019-06-15T14:39:12.649Z,99731.03
2019-06-15T14:43:20.899Z,99741.41
2019-06-15T14:47:28.753Z,99731.89
2019-06-15T14:51:37.153Z,99734.42
2019-06-15T14:55:45.973Z,99730.53
2019-06-15T15:00:01.509Z,99727.45
2019-06-15T15:04:03.047Z,99731.23
2019-06-15T15:08:11.430Z,99732.64
2019-06-15T15:12:20.229Z,99733.45
2019-06-15T15:16:28.572Z,99742.50
2019-06-15T15:20:36.829Z,99748.48
2019-06-15T15:24:45.354Z,99745.64
2019-06-15T15:28:56.481Z,99750.04
2019-06-15T15:33:06.696Z,99748.14
2019-06-15T15:37:15.910Z,99741.30
2019-06-15T15:41:26.582Z,99744.84
2019-06-15T15:45:37.109Z,99739.55
2019-06-15T15:49:47.215Z,99746.34
2019-06-15T15:53:56.689Z,99747.11
2019-06-15T15:58:06.704Z,99756.09
2019-06-15T16:02:16.165Z,99753.30
2019-06-15T16:06:25.900Z,99747.75
2019-06-15T16:10:33.444Z,99744.67
2019-06-15T16:14:41.709Z,99739.40
2019-06-15T16:18:50.055Z,99741.28
2019-06-15T16:22:57.928Z,99761.44
2019-06-15T16:27:07.125Z,99762.86
2019-06-15T16:31:18.724Z,99764.13
2019-06-15T16:35:27.141Z,99765.59
2019-06-15T16:39:36.181Z,99770.44
2019-06-15T16:43:46.175Z,99773.53
2019-06-15T16:47:54.530Z,99776.29
2019-06-15T16:52:02.383Z,99783.12
2019-06-15T16:56:10.659Z,99792.28
2019-06-15T17:00:21.851Z,99793.28
2019-06-15T17:04:30.439Z,99787.01
2019-06-15T17:08:38.702Z,99799.69
2019-06-15T17:12:47.705Z,99795.00
2019-06-15T17:16:56.707Z,99794.16
2019-06-15T17:21:07.034Z,99795.19
2019-06-15T17:25:16.575Z,99802.43
2019-06-15T17:29:24.723Z,99798.88
2019-06-15T17:33:37.649Z,99794.34
2019-06-15T17:37:43.401Z,99785.63
2019-06-15T17:41:51.176Z,99794.11
2019-06-15T17:45:59.488Z,99794.61
2019-06-15T17:50:07.696Z,99808.41
2019-06-15T17:54:17.060Z,99808.41
2019-06-15T17:58:26.222Z,99815.45
2019-06-15T18:02:34.619Z,99801.95
2019-06-15T18:06:42.994Z,99801.95
2019-06-15T18:10:50.717Z,99799.61
2019-06-15T18:14:59.121Z,99799.61
2019-06-15T18:19:07.070Z,99800.30
2019-06-15T18:23:17.292Z,99798.62
2019-06-15T18:27:26.428Z,99793.11
2019-06-15T18:31:36.408Z,99804.35
2019-06-15T18:35:47.050Z,99811.49
2019-06-15T18:39:55.958Z,99817.18
2019-06-15T18:44:06.252Z,99821.83
2019-06-15T18:48:16.602Z,99828.02
2019-06-15T18:52:26.486Z,99827.63
2019-06-15T18:56:33.621Z,99830.72
2019-06-15T19:00:41.962Z,99841.27
2019-06-15T19:04:49.836Z,99832.87
2019-06-15T19:08:58.526Z,99826.20
2019-06-15T19:13:07.835Z,99828.37
2019-06-15T19:17:16.503Z,99827.16
2019-06-15T19:21:26.047Z,99825.23
2019-06-15T19:25:36.435Z,99826.47
2019-06-15T19:29:46.581Z,99826.47
2019-06-15T19:33:56.824Z,99818.73
2019-06-15T19:38:06.368Z,99817.30
2019-06-15T19:42:14.600Z,99811.17
2019-06-15T19:46:22.343Z,99806.19
2019-06-15T19:50:30.681Z,99802.94
2019-06-15T19:54:38.450Z,99817.05
2019-06-15T19:58:46.586Z,99803.89
2019-06-15T20:02:57.151Z,99803.89
2019-06-15T20:07:06.604Z,99817.78
2019-06-15T20:11:14.400Z,99812.06
2019-06-15T20:15:25.923Z,99812.06
2019-06-15T20:19:32.419Z,99815.66
2019-06-15T20:23:40.695Z,99817.09
2019-06-15T20:27:49.766Z,99817.09
2019-06-15T20:31:58.263Z,99811.08
2019-06-15T20:36:07.338Z,99806.45
2019-06-15T20:40:16.501Z,99805.09
2019-06-15T20:44:26.103Z,99797.55
2019-06-15T20:48:36.271Z,99796.84
2019-06-15T20:52:47.092Z,99796.42
2019-06-15T20:56:54.129Z,99796.00
2019-06-15T21:01:02.500Z,99787.78
2019-06-15T21:05:11.194Z,99791.28
2019-06-15T21:09:19.141Z,99787.39
2019-06-15T21:13:27.505Z,99778.48
2019-06-15T21:17:37.140Z,99778.42
2019-06-15T21:21:47.184Z,99769.85
2019-06-15T21:25:57.177Z,99759.00
2019-06-15T21:30:06.887Z,99752.70
2019-06-15T21:34:15.274Z,99753.09
2019-06-15T21:38:22.978Z,99745.34
2019-06-15T21:42:31.537Z,99741.40
2019-06-15T21:46:39.567Z,99732.13
2019-06-15T21:50:47.628Z,99732.66
2019-06-15T21:54:56.104Z,99732.51
2019-06-15T21:59:03.656Z,99737.03
2019-06-15T22:03:12.452Z,99737.86
2019-06-15T22:07:21.229Z,99733.08
2019-06-15T22:11:28.971Z,99726.35
2019-06-15T22:15:37.151Z,99727.18
2019-06-15T22:19:46.637Z,99722.66
2019-06-15T22:23:55.897Z,99723.03
2019-06-15T22:28:06.777Z,99722.23
2019-06-15T22:32:16.464Z,99726.39
2019-06-15T22:36:25.455Z,99710.36
2019-06-15T22:40:36.200Z,99707.77
2019-06-15T22:44:46.249Z,99717.81
2019-06-15T22:48:55.998Z,99706.05
2019-06-15T22:53:04.689Z,99703.47
2019-06-15T22:57:13.393Z,99698.22
2019-06-15T23:01:21.665Z,99695.50
2019-06-15T23:05:29.419Z,99695.19
2019-06-15T23:09:37.350Z,99700.77
2019-06-15T23:13:46.409Z,99706.44
2019-06-15T23:17:57.074Z,99702.14
2019-06-15T23:22:04.235Z,99709.90
2019-06-15T23:26:12.138Z,99707.17
2019-06-15T23:30:20.363Z,99711.55
2019-06-15T23:34:28.497Z,99709.52
2019-06-15T23:38:37.795Z,99707.61
2019-06-15T23:42:46.761Z,99700.83
2019-06-15T23:46:54.625Z,99708.81
2019-06-15T23:51:02.314Z,99699.86
2019-06-15T23:55:10.654Z,99697.45
2019-06-15T23:59:19.637Z,99690.38
